Main page
METAR-TAF:

METAR-TAF

Airports :

Doncaster Sheffield, England

Doncaster Sheffield Airport

latitude: 53-29N, longitude: 001-00W, elevation: 17 m

Current weather observation

The report was made 24 minutes ago, at 08:20 UTC
Wind 9 kt from the West, varying between West/Southwest and Northwest
Temperature 17°C
Humidity 68%
Pressure 1019 hPa
Visibility 10 km or more
Scattered clouds at a height of 2900 ft

METAR: EGCN 230820Z 27009KT 240V310 9999 SCT029 17/11 Q1019

Time: 09:44 (08:44 UTC)

Forecast

The report was made 3 hours and 47 minutes ago, at 04:57 UTC
Forecast valid from 23 at 06 UTC to 24 at 06 UTC
Wind 6 kt from the West
Visibility 10 km or more
Few clouds at a height of 4000 ft

TAF: EGCN 230457Z 2306/2406 28006KT 9999 FEW040

Weather observations and forecasts of more than 4000 airports (METAR and TAF reports).

The available stations are represented by yellow and red dots on the map.

Hover mouse over dot to see the name of the station.

Then click to see weather observations and forecasts.

To change the map : click on the green buttons with a black cross to zoom in, on the green button with a dash to zoom out, or on the green arrows for adjacent maps.


METAR-TAF: